Time;durP1;ratioP1;P1;durP2;ratioP2;P2;SDS_P1;SDS_P2;PMS_P1;PMS_P2;Temp;Humidity;BMP_temperature;BMP_pressure;BME280_temperature;BME280_humidity;BME280_pressure;Samples;Min_cycle;Max_cycle;Signal;HPM_P1;HPM_P2
2021/12/04 00:00:54;;;;;;;13.30;9.73;;;22.50;99.90;;;;;;5121753;27;20023;-80
2021/12/04 00:03:22;;;;;;;15.32;8.57;;;22.50;99.90;;;;;;5131670;27;21400;-79
2021/12/04 00:05:55;;;;;;;48.83;33.60;;;22.60;99.90;;;;;;5119204;27;20375;-79
2021/12/04 00:08:25;;;;;;;16.38;10.82;;;22.60;99.90;;;;;;5117196;27;20035;-78
2021/12/04 00:10:52;;;;;;;12.45;9.35;;;22.50;99.90;;;;;;5120974;27;20034;-79
2021/12/04 00:13:20;;;;;;;10.55;8.02;;;22.50;99.90;;;;;;5132713;27;20067;-80
2021/12/04 00:15:47;;;;;;;12.70;8.98;;;22.50;99.90;;;;;;5132456;27;20023;-78
2021/12/04 00:18:15;;;;;;;10.13;7.78;;;22.60;99.90;;;;;;5130240;27;20039;-78
2021/12/04 00:20:42;;;;;;;8.05;5.80;;;22.70;99.90;;;;;;5124291;27;20072;-79
2021/12/04 00:23:11;;;;;;;9.75;5.65;;;22.60;99.90;;;;;;5113260;27;20032;-80
2021/12/04 00:25:38;;;;;;;5.55;3.97;;;22.70;99.90;;;;;;5128875;27;20034;-77
2021/12/04 00:28:07;;;;;;;6.63;4.25;;;22.70;99.90;;;;;;5132646;27;20049;-80
2021/12/04 00:30:35;;;;;;;6.55;2.97;;;22.80;99.90;;;;;;5124810;27;20058;-76
2021/12/04 00:33:18;;;;;;;3.10;1.80;;;22.80;99.90;;;;;;5125052;27;20027;-75
2021/12/04 00:35:54;;;;;;;2.30;1.00;;;22.90;99.90;;;;;;5129671;27;20416;-78
2021/12/04 00:49:17;;;;;;;6.18;1.67;;;23.20;99.90;;;;;;5132732;28;20425;-80
2021/12/04 00:51:53;;;;;;;6.38;1.52;;;23.40;99.90;;;;;;5131829;28;20030;-78
2021/12/04 00:54:26;;;;;;;2.35;1.77;;;23.50;99.90;;;;;;5130284;28;20027;-79
2021/12/04 00:56:55;;;;;;;3.03;1.75;;;23.70;99.90;;;;;;5126843;28;20019;-80
2021/12/04 00:59:22;;;;;;;2.50;1.70;;;23.70;99.90;;;;;;5122413;28;20046;-78
2021/12/04 01:01:50;;;;;;;2.42;2.00;;;23.70;99.90;;;;;;5129961;28;20057;-79
2021/12/04 01:04:20;;;;;;;5.05;2.45;;;23.70;99.90;;;;;;5122779;28;20023;-79
2021/12/04 01:06:47;;;;;;;4.05;2.40;;;23.70;99.90;;;;;;5128517;28;20026;-77
2021/12/04 01:09:17;;;;;;;2.92;2.60;;;23.60;99.90;;;;;;5123371;28;20047;-80
2021/12/04 01:11:46;;;;;;;5.95;2.90;;;23.60;99.90;;;;;;5119728;28;20030;-79
2021/12/04 01:14:16;;;;;;;6.47;3.60;;;23.40;99.90;;;;;;5129232;28;20049;-79
2021/12/04 01:16:44;;;;;;;5.78;3.45;;;23.30;99.90;;;;;;5123600;28;20016;-80
2021/12/04 01:19:14;;;;;;;5.70;3.63;;;23.20;99.90;;;;;;5127784;28;20428;-79
2021/12/04 01:21:42;;;;;;;5.07;3.65;;;23.10;99.90;;;;;;5127666;28;20081;-78
2021/12/04 01:24:10;;;;;;;6.25;3.90;;;23.10;99.90;;;;;;5127207;28;20023;-79
2021/12/04 01:26:38;;;;;;;4.95;3.38;;;23.10;99.90;;;;;;5130934;28;20064;-78
2021/12/04 01:29:05;;;;;;;3.78;2.30;;;23.00;99.90;;;;;;5126123;28;20050;-78
2021/12/04 01:31:33;;;;;;;2.65;1.60;;;22.90;99.90;;;;;;5123143;28;20030;-79
2021/12/04 01:34:01;;;;;;;3.65;1.38;;;22.80;99.90;;;;;;5126888;28;20076;-78
2021/12/04 01:36:29;;;;;;;8.13;1.80;;;22.80;99.90;;;;;;5126229;28;20064;-75
2021/12/04 01:38:57;;;;;;;3.25;1.50;;;22.70;99.90;;;;;;5126868;28;20039;-76
2021/12/04 01:41:24;;;;;;;3.25;1.00;;;22.50;99.90;;;;;;5128189;28;20385;-76
2021/12/04 01:43:52;;;;;;;2.38;1.25;;;22.40;99.90;;;;;;5128087;28;20038;-76
2021/12/04 01:46:19;;;;;;;5.40;1.23;;;22.40;99.90;;;;;;5126691;28;20098;-78
2021/12/04 01:48:46;;;;;;;4.72;1.33;;;22.40;99.90;;;;;;5129777;28;20023;-80
2021/12/04 01:51:14;;;;;;;7.07;2.42;;;22.30;99.90;;;;;;5130349;28;20019;-78
2021/12/04 01:53:41;;;;;;;3.53;1.75;;;22.30;99.90;;;;;;5117260;28;20076;-76
2021/12/04 01:56:09;;;;;;;7.05;1.35;;;22.40;99.90;;;;;;5121035;28;20571;-79
2021/12/04 01:58:37;;;;;;;6.57;2.03;;;22.50;99.90;;;;;;5128518;28;20027;-78
2021/12/04 02:01:05;;;;;;;9.27;2.28;;;22.50;99.90;;;;;;5105511;27;20019;-76
2021/12/04 02:03:32;;;;;;;7.13;1.50;;;22.50;99.90;;;;;;5131914;27;20056;-77
2021/12/04 02:06:00;;;;;;;10.32;2.35;;;22.50;99.90;;;;;;5123994;27;20027;-77
2021/12/04 02:08:27;;;;;;;2.80;1.40;;;22.50;99.90;;;;;;5130519;27;20114;-76
2021/12/04 02:10:58;;;;;;;3.58;1.65;;;22.60;99.90;;;;;;5132741;27;20367;-77
2021/12/04 02:13:26;;;;;;;5.40;2.05;;;22.70;99.90;;;;;;5118416;27;20484;-76
2021/12/04 02:15:54;;;;;;;8.15;1.65;;;22.90;99.90;;;;;;5133446;27;20027;-77
2021/12/04 02:18:22;;;;;;;4.50;1.95;;;23.00;99.90;;;;;;5129135;27;20423;-76
2021/12/04 02:20:50;;;;;;;2.25;1.40;;;23.10;99.90;;;;;;5134514;27;20115;-79
2021/12/04 02:23:18;;;;;;;3.40;1.55;;;23.20;99.90;;;;;;5133780;27;20031;-75
2021/12/04 02:25:45;;;;;;;6.47;1.85;;;23.40;99.90;;;;;;5134678;27;20064;-75
2021/12/04 02:28:13;;;;;;;5.55;2.42;;;23.30;99.90;;;;;;5134848;27;20031;-75
2021/12/04 02:30:43;;;;;;;5.05;2.15;;;23.30;99.90;;;;;;5135067;27;20072;-77
2021/12/04 02:33:11;;;;;;;5.28;1.65;;;23.20;99.90;;;;;;5131689;27;20090;-82
2021/12/04 02:35:41;;;;;;;6.15;2.42;;;23.20;99.90;;;;;;5132746;27;20073;-81
2021/12/04 02:38:08;;;;;;;6.57;1.25;;;23.30;99.90;;;;;;5133569;27;20114;-81
2021/12/04 02:40:36;;;;;;;3.85;1.10;;;23.50;99.90;;;;;;5128609;27;20027;-79
2021/12/04 02:43:05;;;;;;;5.78;1.35;;;23.60;99.90;;;;;;5133459;27;20050;-80
2021/12/04 02:45:32;;;;;;;3.00;1.55;;;23.70;99.90;;;;;;5124098;27;20106;-82
2021/12/04 02:47:59;;;;;;;5.45;1.60;;;24.10;99.90;;;;;;5130881;27;20030;-82
2021/12/04 02:50:27;;;;;;;6.45;2.65;;;24.90;99.90;;;;;;5134156;27;20110;-82
2021/12/04 02:52:54;;;;;;;6.72;2.03;;;25.20;99.90;;;;;;5135250;27;20469;-82
2021/12/04 02:55:21;;;;;;;3.35;1.90;;;25.50;99.90;;;;;;5129311;27;20261;-79
2021/12/04 02:57:49;;;;;;;6.05;2.00;;;25.80;99.90;;;;;;5128336;27;20015;-81
2021/12/04 03:00:20;;;;;;;4.80;1.60;;;25.90;99.90;;;;;;5132617;27;20486;-81
2021/12/04 03:02:47;;;;;;;4.95;1.88;;;25.90;99.90;;;;;;5133690;27;20031;-81
2021/12/04 03:05:22;;;;;;;4.10;1.65;;;26.50;99.90;;;;;;5132289;27;20126;-81
2021/12/04 03:07:54;;;;;;;2.85;1.45;;;26.70;99.90;;;;;;5135920;27;20098;-78
2021/12/04 03:10:21;;;;;;;5.68;1.38;;;26.20;99.90;;;;;;5133672;27;20027;-76
2021/12/04 03:12:49;;;;;;;5.18;1.48;;;25.80;99.90;;;;;;5134120;27;20560;-82
2021/12/04 03:15:20;;;;;;;4.63;1.77;;;25.50;99.90;;;;;;5129034;27;20098;-82
2021/12/04 03:17:48;;;;;;;3.85;1.38;;;25.50;99.90;;;;;;5134902;27;20043;-80
2021/12/04 03:20:15;;;;;;;6.65;1.75;;;25.70;99.90;;;;;;5133355;27;20027;-81
2021/12/04 03:22:44;;;;;;;6.22;1.58;;;25.80;99.90;;;;;;5134351;27;20023;-81
2021/12/04 03:25:15;;;;;;;5.68;1.23;;;25.80;99.90;;;;;;5134468;27;20076;-80
2021/12/04 03:27:47;;;;;;;8.77;2.25;;;25.40;99.90;;;;;;5128771;27;20019;-81
2021/12/04 03:30:32;;;;;;;3.97;1.75;;;25.20;99.90;;;;;;5132715;27;20024;-81
2021/12/04 03:41:06;;;;;;;3.83;1.70;;;25.30;99.90;;;;;;5133594;27;20046;-81
2021/12/04 03:43:34;;;;;;;5.75;1.55;;;25.20;99.90;;;;;;5122972;27;20031;-81
2021/12/04 03:46:03;;;;;;;5.30;1.10;;;25.20;99.90;;;;;;5132101;27;20026;-82
2021/12/04 03:51:02;;;;;;;3.08;0.82;;;25.00;99.70;;;;;;5131601;27;20027;-81
2021/12/04 03:53:30;;;;;;;4.53;0.95;;;25.00;99.50;;;;;;5126524;27;20027;-79
2021/12/04 03:55:58;;;;;;;2.78;0.68;;;25.00;99.60;;;;;;5130857;27;20370;-81
2021/12/04 03:58:25;;;;;;;6.15;2.70;;;25.00;99.50;;;;;;5108884;28;20039;-81
2021/12/04 04:00:53;;;;;;;2.45;0.80;;;24.90;99.60;;;;;;5125464;27;20031;-81
2021/12/04 04:03:20;;;;;;;4.65;1.05;;;24.90;99.40;;;;;;5128648;27;20022;-79
2021/12/04 04:05:48;;;;;;;4.60;1.10;;;24.70;99.80;;;;;;5118782;27;20034;-80
2021/12/04 04:08:16;;;;;;;2.47;0.70;;;24.70;99.90;;;;;;5123854;27;20030;-79
2021/12/04 04:10:43;;;;;;;2.83;1.17;;;24.70;99.90;;;;;;5130816;27;20066;-80
2021/12/04 04:13:12;;;;;;;3.42;1.73;;;24.80;99.60;;;;;;5130568;27;20051;-79
2021/12/04 04:15:40;;;;;;;7.30;1.00;;;24.70;99.90;;;;;;5121478;27;20030;-80
2021/12/04 04:18:08;;;;;;;3.72;0.80;;;24.70;99.90;;;;;;5129593;27;20050;-80
2021/12/04 04:20:35;;;;;;;4.60;0.75;;;24.60;99.60;;;;;;5129750;27;20057;-81
2021/12/04 04:23:03;;;;;;;2.05;0.95;;;24.40;99.90;;;;;;5130512;27;20069;-79
2021/12/04 04:25:30;;;;;;;4.75;0.70;;;24.20;99.90;;;;;;5130125;27;20027;-80
2021/12/04 04:27:58;;;;;;;9.20;1.42;;;24.10;99.90;;;;;;5128714;27;20060;-78
2021/12/04 04:30:25;;;;;;;2.60;1.00;;;24.10;99.90;;;;;;5121236;27;20366;-81
2021/12/04 04:32:54;;;;;;;5.93;2.38;;;24.00;99.90;;;;;;5130948;27;20394;-80
2021/12/04 04:35:25;;;;;;;3.33;1.05;;;23.90;99.90;;;;;;5107534;28;20054;-78
2021/12/04 05:10:54;;;;;;;5.63;1.40;;;22.40;99.90;;;;;;5123088;28;20419;-79
2021/12/04 05:13:22;;;;;;;1.23;0.88;;;22.40;99.90;;;;;;5125156;28;20038;-76
2021/12/04 05:18:31;;;;;;;2.70;0.80;;;22.30;99.90;;;;;;5124161;28;20055;-80
2021/12/04 05:21:06;;;;;;;6.18;1.10;;;22.10;99.90;;;;;;5127321;28;20114;-78
2021/12/04 05:23:35;;;;;;;4.45;1.08;;;22.10;99.90;;;;;;5123203;28;20035;-81
2021/12/04 05:26:05;;;;;;;3.47;1.20;;;22.00;99.90;;;;;;5120607;28;20031;-79
2021/12/04 05:28:33;;;;;;;2.53;0.75;;;21.90;99.90;;;;;;5135368;28;20426;-80
2021/12/04 05:31:01;;;;;;;1.33;0.80;;;21.90;99.90;;;;;;5133246;28;20017;-80
2021/12/04 05:33:29;;;;;;;6.28;1.02;;;21.80;99.90;;;;;;5125321;28;20053;-79
2021/12/04 05:35:57;;;;;;;1.88;0.90;;;21.70;99.90;;;;;;5121486;27;20102;-80
2021/12/04 05:38:24;;;;;;;5.05;1.40;;;21.80;99.90;;;;;;5136728;27;20085;-77
2021/12/04 05:40:52;;;;;;;4.32;2.00;;;21.90;99.90;;;;;;5138852;27;20083;-80
2021/12/04 05:43:22;;;;;;;5.78;2.20;;;21.80;99.90;;;;;;5139460;27;20079;-79
2021/12/04 05:45:57;;;;;;;3.22;1.42;;;21.70;99.90;;;;;;5143137;27;20020;-80
2021/12/04 05:48:31;;;;;;;5.03;2.08;;;21.60;99.90;;;;;;5141331;27;20048;-80
2021/12/04 05:53:40;;;;;;;7.20;2.10;;;21.60;99.90;;;;;;5134970;27;20439;-80
2021/12/04 05:56:08;;;;;;;5.55;1.60;;;21.60;99.90;;;;;;5126273;27;20027;-81
2021/12/04 05:58:35;;;;;;;4.40;1.67;;;21.50;99.90;;;;;;5134449;27;20481;-80
2021/12/04 06:01:05;;;;;;;6.53;1.20;;;21.40;99.90;;;;;;5135585;27;20492;-80
2021/12/04 06:03:34;;;;;;;4.85;1.33;;;21.40;99.90;;;;;;5126504;27;20058;-81
2021/12/04 06:06:02;;;;;;;4.90;1.83;;;21.30;99.90;;;;;;5133105;27;20031;-80
2021/12/04 06:08:29;;;;;;;4.43;2.15;;;21.30;99.90;;;;;;5130146;27;20027;-81
2021/12/04 06:10:58;;;;;;;7.63;3.13;;;21.30;99.90;;;;;;5136238;27;20524;-81
2021/12/04 06:13:26;;;;;;;5.63;2.13;;;21.20;99.90;;;;;;5118740;28;20478;-80
2021/12/04 06:15:55;;;;;;;4.13;2.90;;;21.20;99.90;;;;;;5134074;27;20027;-79
2021/12/04 06:18:23;;;;;;;6.70;2.55;;;21.20;99.90;;;;;;5132834;27;20027;-80
2021/12/04 06:23:37;;;;;;;4.78;1.77;;;21.20;99.90;;;;;;5139689;27;20472;-80
2021/12/04 06:26:09;;;;;;;6.88;2.58;;;21.10;99.90;;;;;;5128154;27;20035;-81
2021/12/04 06:28:36;;;;;;;5.05;2.08;;;21.10;99.90;;;;;;5129090;27;20023;-81
2021/12/04 06:31:07;;;;;;;8.43;2.88;;;21.00;99.90;;;;;;5124346;27;20170;-81
2021/12/04 06:33:34;;;;;;;3.28;2.05;;;21.10;99.90;;;;;;5136486;27;20027;-81
2021/12/04 06:36:02;;;;;;;4.90;2.60;;;21.20;99.90;;;;;;5126671;27;20023;-80
2021/12/04 06:38:29;;;;;;;6.38;3.80;;;21.30;99.90;;;;;;5134870;27;20535;-79
2021/12/04 06:40:56;;;;;;;7.55;2.42;;;21.30;99.90;;;;;;5130310;27;20084;-79
2021/12/04 06:43:25;;;;;;;7.15;2.70;;;21.30;99.90;;;;;;5134214;27;20019;-79
2021/12/04 06:46:00;;;;;;;7.53;2.95;;;21.30;99.90;;;;;;5124180;27;20031;-80
2021/12/04 06:56:08;;;;;;;7.25;2.70;;;21.10;99.90;;;;;;5135503;27;20049;-80
2021/12/04 06:58:37;;;;;;;5.07;2.40;;;21.00;99.90;;;;;;5137015;27;20027;-79
2021/12/04 07:01:06;;;;;;;5.50;2.60;;;20.90;99.90;;;;;;5134547;27;20019;-80
2021/12/04 07:03:34;;;;;;;6.60;2.80;;;20.90;99.90;;;;;;5128415;27;20064;-80
2021/12/04 07:06:01;;;;;;;4.15;2.58;;;20.90;99.90;;;;;;5139633;27;20050;-80
2021/12/04 07:08:28;;;;;;;5.28;2.20;;;20.80;99.90;;;;;;5133909;27;20023;-76
2021/12/04 07:10:56;;;;;;;6.90;3.10;;;20.80;99.90;;;;;;5135035;27;20031;-79
2021/12/04 07:13:23;;;;;;;7.68;3.55;;;20.90;99.90;;;;;;5132171;27;20030;-79
2021/12/04 07:16:00;;;;;;;6.70;2.80;;;20.80;99.90;;;;;;5136371;27;20026;-79
2021/12/04 07:18:28;;;;;;;7.40;2.60;;;20.80;99.90;;;;;;5137404;27;20031;-80
2021/12/04 07:20:55;;;;;;;14.30;3.10;;;20.80;99.90;;;;;;5129626;27;20027;-78
2021/12/04 07:23:23;;;;;;;7.55;3.22;;;20.70;99.90;;;;;;5120046;27;20024;-78
2021/12/04 07:25:51;;;;;;;9.13;2.42;;;20.70;99.90;;;;;;5137805;27;20023;-79
2021/12/04 07:28:18;;;;;;;9.43;3.15;;;20.60;99.90;;;;;;5126177;27;20045;-79
2021/12/04 07:30:46;;;;;;;4.85;3.13;;;20.60;99.90;;;;;;5129197;27;20050;-78
2021/12/04 07:33:13;;;;;;;7.25;2.55;;;20.60;99.90;;;;;;5136058;27;20532;-79
2021/12/04 07:35:41;;;;;;;7.18;2.70;;;20.50;99.90;;;;;;5123620;27;20733;-81
2021/12/04 07:38:10;;;;;;;5.90;3.22;;;20.40;99.90;;;;;;5132646;27;20103;-80
2021/12/04 07:40:39;;;;;;;12.40;3.00;;;20.40;99.90;;;;;;5137133;27;20095;-80
2021/12/04 07:43:07;;;;;;;8.85;2.33;;;20.40;99.90;;;;;;5137925;27;20470;-81
2021/12/04 07:45:34;;;;;;;5.95;2.63;;;20.30;99.90;;;;;;5139309;27;20030;-79
2021/12/04 07:48:02;;;;;;;4.90;2.85;;;20.30;99.90;;;;;;5139615;27;20033;-79
2021/12/04 07:50:30;;;;;;;8.40;3.45;;;20.30;99.90;;;;;;5138253;27;20022;-77
2021/12/04 07:52:58;;;;;;;8.55;3.05;;;20.30;99.90;;;;;;5135998;27;20370;-78
2021/12/04 07:55:26;;;;;;;9.73;2.60;;;20.20;99.90;;;;;;5132957;27;20494;-78
2021/12/04 07:57:53;;;;;;;6.85;3.28;;;20.20;99.90;;;;;;5133179;27;20410;-79
2021/12/04 08:00:22;;;;;;;7.03;3.15;;;20.20;99.90;;;;;;5133624;27;20023;-78
2021/12/04 08:02:50;;;;;;;6.75;2.38;;;20.10;99.90;;;;;;5128201;27;20028;-81
2021/12/04 08:05:19;;;;;;;5.07;3.00;;;20.10;99.90;;;;;;5116391;27;20045;-80
2021/12/04 08:07:46;;;;;;;9.75;3.10;;;20.10;99.90;;;;;;5138742;27;20015;-78
2021/12/04 08:10:17;;;;;;;7.85;2.63;;;20.00;99.90;;;;;;5133785;27;20126;-79
2021/12/04 08:12:45;;;;;;;4.45;2.70;;;20.00;99.90;;;;;;5134101;27;20023;-80
2021/12/04 08:15:13;;;;;;;3.38;2.20;;;20.00;99.90;;;;;;5134290;27;20109;-79
2021/12/04 08:17:43;;;;;;;6.00;2.65;;;20.00;99.90;;;;;;5134133;27;20030;-79
2021/12/04 08:20:12;;;;;;;4.75;2.83;;;19.90;99.90;;;;;;5125719;27;20405;-78
2021/12/04 08:22:40;;;;;;;8.50;2.97;;;19.90;99.90;;;;;;5132651;27;20102;-77
2021/12/04 08:25:10;;;;;;;8.80;2.88;;;19.80;99.90;;;;;;5127567;27;20632;-80
2021/12/04 08:27:38;;;;;;;5.88;2.60;;;19.90;99.90;;;;;;5130552;27;20090;-77
2021/12/04 08:30:11;;;;;;;6.47;3.40;;;19.80;99.90;;;;;;5134565;27;20027;-78
2021/12/04 08:32:39;;;;;;;4.28;3.10;;;19.80;99.90;;;;;;5117171;27;20027;-78
2021/12/04 08:35:09;;;;;;;6.22;2.80;;;19.80;99.90;;;;;;5122504;27;20034;-78
2021/12/04 08:37:36;;;;;;;6.53;3.47;;;19.80;99.90;;;;;;5117113;27;20147;-79
2021/12/04 08:40:11;;;;;;;7.72;3.05;;;19.80;99.90;;;;;;5133665;27;20045;-78
2021/12/04 08:42:40;;;;;;;6.65;3.75;;;19.80;99.90;;;;;;5135669;27;20019;-79
2021/12/04 08:45:08;;;;;;;4.68;3.20;;;19.70;99.90;;;;;;5123784;27;20464;-79
2021/12/04 08:47:38;;;;;;;6.03;3.47;;;19.70;99.90;;;;;;5131894;27;20035;-79
2021/12/04 08:50:11;;;;;;;6.00;3.28;;;19.70;99.90;;;;;;5130385;27;20038;-80
2021/12/04 08:52:40;;;;;;;6.97;2.90;;;19.70;99.90;;;;;;5130218;28;20148;-79
2021/12/04 08:55:09;;;;;;;7.43;3.80;;;19.70;99.90;;;;;;5131166;28;20411;-79
2021/12/04 08:57:36;;;;;;;5.22;3.13;;;19.70;99.90;;;;;;5133366;28;20030;-77
2021/12/04 09:00:08;;;;;;;6.28;3.75;;;19.70;99.90;;;;;;5134458;28;20035;-78
2021/12/04 09:02:36;;;;;;;11.02;3.53;;;19.60;99.90;;;;;;5125573;28;20023;-78
2021/12/04 09:05:04;;;;;;;8.45;3.65;;;19.50;99.90;;;;;;5131450;28;20112;-78
2021/12/04 09:07:31;;;;;;;6.10;3.13;;;19.50;99.90;;;;;;5129582;28;20019;-79
2021/12/04 09:09:59;;;;;;;6.35;3.40;;;19.50;99.90;;;;;;5124628;28;20020;-79
2021/12/04 09:12:28;;;;;;;9.07;4.85;;;19.50;99.90;;;;;;5134442;27;20023;-78
2021/12/04 09:14:57;;;;;;;8.95;3.75;;;19.40;99.90;;;;;;5125700;27;20527;-79
2021/12/04 09:17:25;;;;;;;8.20;3.90;;;19.30;99.90;;;;;;5118923;27;20034;-78
2021/12/04 09:19:52;;;;;;;8.35;4.30;;;19.30;99.90;;;;;;5125929;27;20035;-79
2021/12/04 09:22:32;;;;;;;5.32;3.30;;;19.20;99.90;;;;;;5117438;27;20398;-77
2021/12/04 09:25:00;;;;;;;9.25;3.85;;;19.10;99.90;;;;;;5132865;27;20698;-77
2021/12/04 09:30:10;;;;;;;8.18;4.65;;;19.00;99.90;;;;;;5129510;27;20033;-78
2021/12/04 09:36:20;;;;;;;9.25;3.90;;;18.90;99.90;;;;;;5081364;27;20042;-79
2021/12/04 10:03:13;;;;;;;8.60;5.30;;;18.70;99.90;;;;;;5125575;27;20037;-79
2021/12/04 10:14:17;;;;;;;14.57;5.45;;;18.60;99.90;;;;;;5129600;27;20077;-77
2021/12/04 10:22:43;;;;;;;12.13;6.72;;;18.30;99.90;;;;;;5133926;27;20099;-79
2021/12/04 10:33:43;;;;;;;11.40;5.55;;;18.20;99.90;;;;;;5128183;27;20050;-79
2021/12/04 10:36:12;;;;;;;15.18;5.50;;;18.20;99.90;;;;;;5129687;27;20023;-77
2021/12/04 10:38:45;;;;;;;8.48;5.28;;;18.20;99.90;;;;;;5118881;27;20133;-76
2021/12/04 10:41:16;;;;;;;8.77;5.25;;;18.20;99.90;;;;;;5136197;27;20034;-77
2021/12/04 10:43:44;;;;;;;12.20;5.82;;;18.20;99.90;;;;;;5132933;27;20065;-76
2021/12/04 10:46:16;;;;;;;8.40;4.82;;;18.20;99.90;;;;;;5136566;27;20027;-77
2021/12/04 10:49:02;;;;;;;10.70;4.90;;;18.20;99.90;;;;;;5137925;27;20036;-77
2021/12/04 10:51:49;;;;;;;10.77;4.45;;;18.20;99.90;;;;;;5136198;27;20070;-76
2021/12/04 10:54:27;;;;;;;13.07;5.38;;;18.10;99.90;;;;;;5118735;27;20488;-74
2021/12/04 10:57:26;;;;;;;9.52;4.00;;;18.10;99.90;;;;;;5135349;27;20050;-77
2021/12/04 10:59:55;;;;;;;8.20;3.58;;;18.10;99.90;;;;;;5135825;27;20035;-76
2021/12/04 11:02:29;;;;;;;15.15;4.57;;;18.10;99.90;;;;;;5127884;27;20385;-75
2021/12/04 11:05:13;;;;;;;9.70;3.80;;;18.10;99.90;;;;;;5132185;27;20047;-75
2021/12/04 11:19:02;;;;;;;6.63;2.03;;;17.80;99.90;;;;;;5121271;27;20123;-79
2021/12/04 11:21:59;;;;;;;6.32;1.38;;;17.70;99.90;;;;;;5123982;27;20032;-79
2021/12/04 11:25:08;;;;;;;5.00;2.28;;;17.70;99.90;;;;;;5131478;27;20468;-81
2021/12/04 11:27:53;;;;;;;7.32;2.13;;;17.60;99.90;;;;;;5128851;27;20031;-79
2021/12/04 11:43:26;;;;;;;5.95;1.27;;;17.70;99.90;;;;;;5122382;27;20391;-75
2021/12/04 11:48:41;;;;;;;9.27;1.35;;;17.70;99.90;;;;;;5132398;27;20046;-81
2021/12/04 11:51:16;;;;;;;10.32;1.77;;;17.70;99.90;;;;;;5124424;27;20027;-79
2021/12/04 11:53:45;;;;;;;8.23;1.95;;;17.70;99.90;;;;;;5126914;27;20106;-78
2021/12/04 11:56:21;;;;;;;4.78;1.13;;;17.70;99.90;;;;;;5131708;27;20032;-78
2021/12/04 11:58:50;;;;;;;5.63;1.20;;;17.70;99.90;;;;;;5135355;27;20019;-80
2021/12/04 12:01:35;;;;;;;12.10;1.55;;;17.70;99.90;;;;;;5132980;27;20026;-79
2021/12/04 12:04:11;;;;;;;6.93;1.58;;;17.70;99.90;;;;;;5128581;27;20586;-79
2021/12/04 12:06:40;;;;;;;;;;;17.70;99.90;;;;;;5136217;27;20424;-80
2021/12/04 12:09:17;;;;;;;6.78;1.42;;;17.70;99.90;;;;;;5134495;27;19908;-80
2021/12/04 12:11:49;;;;;;;8.77;1.27;;;17.70;99.90;;;;;;5134607;27;20060;-79
2021/12/04 12:14:20;;;;;;;3.92;1.38;;;17.70;99.90;;;;;;5135400;27;20019;-77
2021/12/04 12:16:53;;;;;;;8.35;1.52;;;17.60;99.90;;;;;;5139633;27;20027;-79
2021/12/04 12:19:43;;;;;;;3.72;0.95;;;17.60;99.90;;;;;;5138173;27;20029;-78
2021/12/04 12:22:34;;;;;;;7.18;1.52;;;17.60;99.90;;;;;;5135375;27;20038;-79
2021/12/04 12:36:32;;;;;;;6.35;1.42;;;17.50;99.90;;;;;;5119008;27;20026;-75
2021/12/04 12:39:20;;;;;;;9.13;2.55;;;17.40;99.90;;;;;;5116575;27;20089;-77
2021/12/04 12:41:50;;;;;;;6.47;1.25;;;17.50;99.90;;;;;;5122856;27;20073;-77
2021/12/04 12:44:25;;;;;;;6.32;2.20;;;17.40;99.90;;;;;;5118119;27;20092;-78
2021/12/04 12:47:02;;;;;;;;;;;17.40;99.90;;;;;;5122176;27;20057;-78
2021/12/04 12:49:37;;;;;;;;;;;17.30;99.90;;;;;;5115679;27;19912;-78
2021/12/04 12:52:28;;;;;;;4.40;1.58;;;17.30;99.90;;;;;;5127252;27;19914;-80
2021/12/04 12:54:59;;;;;;;4.43;1.08;;;17.30;99.90;;;;;;5124057;28;20035;-78
2021/12/04 12:57:30;;;;;;;8.63;1.92;;;17.20;99.90;;;;;;5115377;28;20025;-79
2021/12/04 13:11:47;;;;;;;5.93;1.38;;;17.10;99.90;;;;;;5126456;28;20070;-80
2021/12/04 13:14:25;;;;;;;8.30;1.38;;;17.10;99.90;;;;;;5121993;28;20497;-78
2021/12/04 13:17:00;;;;;;;4.65;1.63;;;17.10;99.90;;;;;;5128560;28;20032;-78
2021/12/04 13:19:29;;;;;;;9.13;2.63;;;17.10;99.90;;;;;;5122948;28;20135;-77
2021/12/04 13:22:03;;;;;;;5.05;1.33;;;17.00;99.90;;;;;;5120212;28;20110;-79
2021/12/04 13:24:33;;;;;;;4.70;0.80;;;16.90;99.90;;;;;;5124955;28;20023;-76
2021/12/04 13:29:38;;;;;;;6.10;0.95;;;16.90;99.90;;;;;;5126912;28;20110;-77
2021/12/04 13:32:06;;;;;;;6.80;1.52;;;16.90;99.90;;;;;;5130840;28;20038;-79
2021/12/04 13:34:36;;;;;;;7.13;1.30;;;16.90;99.90;;;;;;5122687;28;20023;-78
2021/12/04 13:37:05;;;;;;;5.07;1.50;;;17.00;99.90;;;;;;5123832;28;20076;-77
2021/12/04 13:39:33;;;;;;;4.03;1.50;;;17.00;99.90;;;;;;5125941;28;20048;-79
2021/12/04 13:42:01;;;;;;;4.45;1.25;;;17.00;99.90;;;;;;5130321;28;20478;-77
2021/12/04 13:44:31;;;;;;;8.05;1.05;;;17.00;99.90;;;;;;5128335;28;20046;-77
2021/12/04 13:47:09;;;;;;;5.25;1.08;;;17.00;99.90;;;;;;5128672;28;20036;-77
2021/12/04 13:49:53;;;;;;;5.05;1.13;;;17.00;99.90;;;;;;5129542;28;20019;-83
2021/12/04 13:52:22;;;;;;;5.15;1.50;;;17.00;99.90;;;;;;5126304;28;20489;-79
2021/12/04 13:54:55;;;;;;;6.80;1.23;;;17.00;99.90;;;;;;5125818;28;20482;-79
2021/12/04 13:57:22;;;;;;;13.20;1.92;;;17.00;99.90;;;;;;5128185;27;20051;-79
2021/12/04 13:59:50;;;;;;;7.00;0.85;;;17.00;99.90;;;;;;5114885;27;20561;-78
2021/12/04 14:02:30;;;;;;;3.28;0.90;;;17.00;99.90;;;;;;5134968;27;20031;-78
2021/12/04 14:04:59;;;;;;;8.98;1.75;;;17.00;99.90;;;;;;5135121;27;20542;-80
2021/12/04 14:07:27;;;;;;;9.48;1.92;;;17.00;99.90;;;;;;5120350;27;20058;-78
2021/12/04 14:09:55;;;;;;;3.67;0.73;;;17.00;99.90;;;;;;5129947;27;20035;-79
2021/12/04 14:12:23;;;;;;;9.48;1.15;;;17.00;99.90;;;;;;5120223;27;20064;-78
2021/12/04 14:14:51;;;;;;;7.00;1.55;;;17.00;99.90;;;;;;5136448;27;20094;-79
2021/12/04 14:17:19;;;;;;;5.60;1.13;;;17.00;99.90;;;;;;5136988;27;20038;-79
2021/12/04 14:19:47;;;;;;;3.63;1.48;;;17.00;99.90;;;;;;5133425;27;20039;-78
2021/12/04 14:22:20;;;;;;;4.32;1.25;;;16.90;99.90;;;;;;5134700;27;20498;-80
2021/12/04 14:24:54;;;;;;;5.55;1.33;;;16.90;99.90;;;;;;5136460;27;20027;-78
2021/12/04 14:27:24;;;;;;;4.75;2.15;;;16.90;99.90;;;;;;5135021;27;20020;-77
2021/12/04 14:29:56;;;;;;;3.15;1.10;;;16.90;99.90;;;;;;5133168;27;20061;-80
2021/12/04 14:32:29;;;;;;;12.57;2.38;;;16.90;99.90;;;;;;5128028;27;20485;-81
2021/12/04 14:34:59;;;;;;;6.55;2.38;;;16.90;99.90;;;;;;5135412;27;20023;-79
2021/12/04 14:37:28;;;;;;;3.90;1.17;;;16.80;99.90;;;;;;5122171;27;20035;-79
2021/12/04 14:39:55;;;;;;;3.35;1.13;;;16.80;99.90;;;;;;5135574;27;20049;-78
2021/12/04 14:42:28;;;;;;;2.92;1.88;;;16.80;99.90;;;;;;5121075;27;20018;-78
2021/12/04 14:45:03;;;;;;;7.78;1.48;;;16.80;99.90;;;;;;5135137;27;20473;-79
2021/12/04 14:47:37;;;;;;;6.50;0.80;;;16.80;99.90;;;;;;5135204;27;20469;-79
2021/12/04 14:50:07;;;;;;;8.35;1.23;;;16.70;99.90;;;;;;5133927;27;20046;-79
2021/12/04 14:52:36;;;;;;;2.47;0.75;;;16.70;99.90;;;;;;5134032;27;20025;-80
2021/12/04 14:55:21;;;;;;;6.10;1.55;;;16.70;99.90;;;;;;5132238;27;20046;-77
2021/12/04 14:57:50;;;;;;;6.32;1.67;;;16.70;99.90;;;;;;5125083;27;20119;-78
2021/12/04 15:00:25;;;;;;;6.80;1.02;;;16.70;99.90;;;;;;5122984;27;20065;-79
2021/12/04 15:03:07;;;;;;;3.07;0.53;;;16.70;99.90;;;;;;5129370;27;20074;-79
2021/12/04 15:05:45;;;;;;;7.15;0.85;;;16.70;99.90;;;;;;5127038;27;20795;-78
2021/12/04 15:08:16;;;;;;;3.45;1.00;;;16.80;99.90;;;;;;5134610;27;20027;-79
2021/12/04 15:10:49;;;;;;;5.05;1.88;;;16.80;99.90;;;;;;5132315;27;20031;-80
2021/12/04 15:13:25;;;;;;;5.35;0.90;;;16.80;99.90;;;;;;5134215;27;20064;-79
2021/12/04 15:15:57;;;;;;;4.88;0.98;;;16.80;99.90;;;;;;5133618;27;20042;-78
2021/12/04 15:18:29;;;;;;;10.60;1.40;;;16.80;99.90;;;;;;5135083;27;20046;-78
2021/12/04 15:21:03;;;;;;;2.05;0.60;;;16.80;99.90;;;;;;5133366;27;20126;-79
2021/12/04 15:23:32;;;;;;;2.90;0.70;;;16.80;99.90;;;;;;5134723;27;20390;-79
2021/12/04 15:26:19;;;;;;;6.93;2.95;;;16.70;99.90;;;;;;5129840;27;20043;-79
2021/12/04 15:28:55;;;;;;;5.28;1.88;;;16.70;99.90;;;;;;5130922;27;20528;-78
2021/12/04 15:31:25;;;;;;;1.98;0.93;;;16.70;99.90;;;;;;5133979;27;20439;-78
2021/12/04 15:33:56;;;;;;;3.88;1.02;;;16.70;99.90;;;;;;5126702;27;20520;-79
2021/12/04 15:36:28;;;;;;;7.18;1.02;;;16.70;99.90;;;;;;5128672;27;20054;-79
2021/12/04 15:38:58;;;;;;;6.95;1.70;;;16.70;99.90;;;;;;5135486;27;20068;-80
2021/12/04 15:41:52;;;;;;;6.53;0.93;;;16.70;99.90;;;;;;5130270;27;20091;-77
2021/12/04 15:44:54;;;;;;;2.22;1.02;;;16.70;99.90;;;;;;5131978;27;20030;-79
2021/12/04 15:50:39;;;;;;;3.53;1.13;;;16.70;99.90;;;;;;5134927;27;20034;-79
2021/12/04 15:53:11;;;;;;;5.47;0.90;;;16.60;99.90;;;;;;5120636;27;20118;-80
2021/12/04 15:55:46;;;;;;;3.85;1.00;;;16.70;99.90;;;;;;5135472;27;20378;-79
2021/12/04 15:58:17;;;;;;;3.00;1.00;;;16.60;99.90;;;;;;5135305;27;20023;-79
2021/12/04 16:00:54;;;;;;;5.22;1.60;;;16.60;99.90;;;;;;5135992;27;20050;-79
2021/12/04 16:03:26;;;;;;;3.70;0.80;;;16.60;99.90;;;;;;5128495;27;20465;-77